LHBP/BUD METAR and TAF weather

Enter ICAO airport designator
Station Type Date Time Source
LHBP METAR 2020/04/03 22:30 UTC NOAA

LHBP 032230Z AUTO 35006KT 9999 NCD 03/M04 Q1017 NOSIG


Station Type Date Time Source
LHBP Decoded METAR 2020/04/03 22:30 UTC NOAA

Budapest / Ferihegy, Hungary (LHBP) 47-26N 019-16E 185M
Apr 03, 2020 - 06:30 PM EDT / 2020.04.03 2230 UTC
Wind: from the N (350 degrees) at 7 MPH (6 KT):0
Visibility: greater than 7 mile(s):0
Temperature: 37 F (3 C)
Dew Point: 24 F (-4 C)
Relative Humidity: 59%
Pressure (altimeter): 30.03 in. Hg (1017 hPa)
ob: LHBP 032230Z AUTO 35006KT 9999 NCD 03/M04 Q1017 NOSIG
cycle: 22

Station Type Date Time Source
LHBP TAF 2020/04/03 18:27 UTC NOAA

TAF TAF LHBP 031715Z 0318/0418 33006KT CAVOK
TEMPO 0318/0406 VRB03KT
BECMG 0406/0408 04009KT

Example: see airport list